Time;durP1;ratioP1;P1;durP2;ratioP2;P2;SDS_P1;SDS_P2;PMS_P1;PMS_P2;Temp;Humidity;BMP_temperature;BMP_pressure;BME280_temperature;BME280_humidity;BME280_pressure;Samples;Min_cycle;Max_cycle;Signal;HPM_P1;HPM_P2
2022/07/06 00:01:06;;;;;;;1.15;0.40;;;;;;;;;;5026910;28;20116;-77
2022/07/06 00:03:31;;;;;;;0.93;0.40;;;;;;;;;;4999234;28;20045;-77
2022/07/06 00:05:57;;;;;;;0.63;0.40;;;;;;;;;;5012280;28;20040;-77
2022/07/06 00:08:22;;;;;;;1.42;0.40;;;;;;;;;;5014323;28;20038;-77
2022/07/06 00:10:50;;;;;;;1.80;0.40;;;;;;;;;;5005354;28;20056;-77
2022/07/06 00:13:15;;;;;;;1.95;0.52;;;;;;;;;;5032931;28;20086;-76
2022/07/06 00:15:41;;;;;;;1.00;0.40;;;;;;;;;;5019884;28;20029;-78
2022/07/06 00:18:06;;;;;;;1.48;0.50;;;;;;;;;;5034635;28;20041;-78
2022/07/06 00:20:31;;;;;;;0.85;0.38;;;;;;;;;;5019264;28;20037;-77
2022/07/06 00:22:57;;;;;;;1.58;0.50;;;;;;;;;;5028034;28;20094;-77
2022/07/06 00:25:22;;;;;;;2.30;0.40;;;;;;;;;;5032344;28;20044;-77
2022/07/06 00:27:47;;;;;;;1.58;0.50;;;;;;;;;;5022029;28;20044;-78
2022/07/06 00:30:13;;;;;;;1.27;0.50;;;;;;;;;;5032835;28;20040;-77
2022/07/06 00:32:38;;;;;;;1.10;0.30;;;;;;;;;;5020671;28;20044;-77
2022/07/06 00:35:04;;;;;;;1.70;0.40;;;;;;;;;;5018195;28;20087;-78
2022/07/06 00:37:30;;;;;;;1.70;0.50;;;;;;;;;;5033641;28;20094;-77
2022/07/06 00:39:55;;;;;;;0.82;0.35;;;;;;;;;;5033536;28;20033;-77
2022/07/06 00:42:20;;;;;;;2.08;0.50;;;;;;;;;;5031457;28;20068;-77
2022/07/06 00:44:46;;;;;;;1.30;0.40;;;;;;;;;;5035570;28;20037;-77
2022/07/06 00:47:11;;;;;;;1.38;0.50;;;;;;;;;;5018887;28;20033;-77
2022/07/06 00:52:20;;;;;;;1.90;0.50;;;;;;;;;;5031272;28;20048;-77
2022/07/06 00:54:46;;;;;;;1.70;0.57;;;;;;;;;;5027224;28;20037;-77
2022/07/06 00:57:11;;;;;;;1.67;0.50;;;;;;;;;;5003583;28;20451;-77
2022/07/06 00:59:37;;;;;;;1.40;0.50;;;;;;;;;;5016989;28;20569;-77
2022/07/06 01:02:02;;;;;;;1.15;0.40;;;;;;;;;;5022095;28;20358;-77
2022/07/06 01:04:30;;;;;;;0.63;0.40;;;;;;;;;;5025711;28;20050;-78
2022/07/06 01:06:56;;;;;;;1.40;0.50;;;;;;;;;;5026547;28;20040;-78
2022/07/06 01:09:22;;;;;;;2.53;0.70;;;;;;;;;;5020897;28;20037;-77
2022/07/06 01:11:48;;;;;;;2.65;0.40;;;;;;;;;;5025475;28;20034;-77
2022/07/06 01:14:14;;;;;;;1.20;0.40;;;;;;;;;;5015687;28;20128;-77
2022/07/06 01:16:39;;;;;;;1.27;0.40;;;;;;;;;;5028696;28;20034;-77
2022/07/06 01:19:05;;;;;;;5.38;0.63;;;;;;;;;;5029730;28;20029;-76
2022/07/06 01:21:30;;;;;;;1.80;0.63;;;;;;;;;;5016620;28;20546;-77
2022/07/06 01:23:55;;;;;;;0.82;0.50;;;;;;;;;;5021138;28;20094;-77
2022/07/06 01:26:21;;;;;;;3.53;0.80;;;;;;;;;;5033626;28;20033;-78
2022/07/06 01:28:49;;;;;;;1.48;0.65;;;;;;;;;;5030274;28;20034;-77
2022/07/06 01:31:19;;;;;;;1.10;0.50;;;;;;;;;;5031075;28;20048;-77
2022/07/06 01:33:45;;;;;;;0.98;0.50;;;;;;;;;;5016204;28;20048;-78
2022/07/06 01:36:11;;;;;;;1.83;0.68;;;;;;;;;;5034820;28;20100;-77
2022/07/06 01:38:49;;;;;;;0.82;0.40;;;;;;;;;;5022217;28;20052;-77
2022/07/06 01:41:15;;;;;;;1.15;0.50;;;;;;;;;;5023818;28;21394;-77
2022/07/06 01:43:40;;;;;;;2.85;0.50;;;;;;;;;;5034119;28;20060;-77
2022/07/06 01:46:05;;;;;;;1.05;0.40;;;;;;;;;;5032402;28;20052;-76
2022/07/06 01:48:31;;;;;;;1.98;0.60;;;;;;;;;;5033635;28;20838;-77
2022/07/06 01:50:56;;;;;;;2.17;0.45;;;;;;;;;;5018973;28;20037;-77
2022/07/06 01:53:21;;;;;;;2.83;0.60;;;;;;;;;;5025876;28;20034;-76
2022/07/06 01:55:47;;;;;;;1.15;0.60;;;;;;;;;;5030176;28;20038;-77
2022/07/06 01:58:12;;;;;;;1.65;0.60;;;;;;;;;;5017089;28;20106;-76
2022/07/06 02:00:37;;;;;;;1.73;0.68;;;;;;;;;;5030899;28;20029;-76
2022/07/06 02:03:03;;;;;;;0.93;0.50;;;;;;;;;;5020177;28;20095;-77
2022/07/06 02:05:28;;;;;;;1.60;0.60;;;;;;;;;;5025064;28;20029;-77
2022/07/06 02:07:53;;;;;;;2.03;0.60;;;;;;;;;;5034187;28;20040;-76
2022/07/06 02:10:19;;;;;;;0.90;0.40;;;;;;;;;;5032276;28;20037;-77
2022/07/06 02:12:44;;;;;;;1.60;0.60;;;;;;;;;;4994537;28;20056;-77
2022/07/06 02:15:10;;;;;;;4.45;0.77;;;;;;;;;;5012543;28;20049;-76
2022/07/06 02:17:35;;;;;;;1.98;0.70;;;;;;;;;;5031640;28;20034;-77
2022/07/06 02:20:00;;;;;;;1.90;0.70;;;;;;;;;;5025277;28;20032;-77
2022/07/06 02:22:26;;;;;;;1.35;0.60;;;;;;;;;;5032199;28;20024;-77
2022/07/06 02:24:51;;;;;;;1.75;0.93;;;;;;;;;;5016083;28;20052;-77
2022/07/06 02:27:16;;;;;;;2.53;0.90;;;;;;;;;;5029670;28;20064;-76
2022/07/06 02:29:42;;;;;;;1.85;0.70;;;;;;;;;;5024430;28;20040;-77
2022/07/06 02:32:07;;;;;;;1.30;0.60;;;;;;;;;;5033361;28;20037;-77
2022/07/06 02:34:33;;;;;;;3.40;0.80;;;;;;;;;;5033869;28;20037;-77
2022/07/06 02:37:00;;;;;;;1.48;0.73;;;;;;;;;;5034413;28;20382;-77
2022/07/06 02:39:25;;;;;;;1.57;0.70;;;;;;;;;;5024645;28;20033;-78
2022/07/06 02:41:50;;;;;;;2.53;0.70;;;;;;;;;;5014903;28;20614;-77
2022/07/06 02:44:16;;;;;;;2.90;0.80;;;;;;;;;;5015526;28;20488;-77
2022/07/06 02:46:41;;;;;;;1.98;0.68;;;;;;;;;;5023802;28;20276;-77
2022/07/06 02:49:06;;;;;;;1.50;0.77;;;;;;;;;;5030363;28;20044;-77
2022/07/06 02:51:32;;;;;;;3.25;0.88;;;;;;;;;;5023738;28;20053;-77
2022/07/06 02:53:57;;;;;;;2.10;0.80;;;;;;;;;;5024762;28;20041;-77
2022/07/06 02:56:22;;;;;;;2.20;0.70;;;;;;;;;;5031600;28;20037;-77
2022/07/06 02:58:48;;;;;;;1.75;0.63;;;;;;;;;;5028099;28;20029;-77
2022/07/06 03:01:13;;;;;;;2.42;0.80;;;;;;;;;;5033315;28;20056;-77
2022/07/06 03:03:38;;;;;;;1.63;0.60;;;;;;;;;;5016178;28;20038;-78
2022/07/06 03:06:04;;;;;;;1.58;0.63;;;;;;;;;;5024068;28;20040;-77
2022/07/06 03:08:29;;;;;;;2.65;0.93;;;;;;;;;;5028190;28;20045;-77
2022/07/06 03:10:55;;;;;;;1.77;0.60;;;;;;;;;;5022546;28;20043;-77
2022/07/06 03:13:20;;;;;;;2.83;0.70;;;;;;;;;;5017907;28;20116;-77
2022/07/06 03:15:45;;;;;;;1.98;0.77;;;;;;;;;;5033427;28;20477;-78
2022/07/06 03:18:11;;;;;;;1.20;0.50;;;;;;;;;;5038575;28;20537;-78
2022/07/06 03:20:36;;;;;;;2.22;0.60;;;;;;;;;;5035890;28;20044;-77
2022/07/06 03:23:01;;;;;;;1.77;0.90;;;;;;;;;;5034230;28;20043;-77
2022/07/06 03:25:27;;;;;;;2.53;0.80;;;;;;;;;;5027602;28;21519;-78
2022/07/06 03:27:52;;;;;;;1.65;0.88;;;;;;;;;;5035069;28;20065;-77
2022/07/06 03:30:17;;;;;;;2.15;0.80;;;;;;;;;;5019190;28;20086;-77
2022/07/06 03:32:43;;;;;;;2.08;0.90;;;;;;;;;;5033666;28;20041;-77
2022/07/06 03:35:08;;;;;;;2.65;0.70;;;;;;;;;;5031316;28;20030;-76
2022/07/06 03:37:34;;;;;;;2.15;0.90;;;;;;;;;;5035716;28;20044;-77
2022/07/06 03:39:59;;;;;;;2.47;0.85;;;;;;;;;;5033144;28;20037;-77
2022/07/06 03:42:24;;;;;;;3.88;0.90;;;;;;;;;;5017198;28;20034;-77
2022/07/06 03:44:50;;;;;;;3.10;1.10;;;;;;;;;;4999322;28;20041;-77
2022/07/06 03:47:15;;;;;;;1.73;0.68;;;;;;;;;;5023346;28;20500;-77
2022/07/06 03:49:40;;;;;;;1.33;0.68;;;;;;;;;;5033035;28;20463;-77
2022/07/06 03:52:06;;;;;;;2.15;0.80;;;;;;;;;;5026681;28;20175;-76
2022/07/06 03:54:31;;;;;;;2.30;0.70;;;;;;;;;;5031217;28;20487;-77
2022/07/06 03:56:56;;;;;;;2.25;0.77;;;;;;;;;;5017719;28;20910;-76
2022/07/06 03:59:21;;;;;;;1.80;0.82;;;;;;;;;;5036305;28;20513;-76
2022/07/06 04:01:47;;;;;;;1.63;0.93;;;;;;;;;;5017109;28;20040;-76
2022/07/06 04:04:12;;;;;;;4.10;1.10;;;;;;;;;;5020189;28;20064;-76
2022/07/06 04:06:38;;;;;;;2.20;0.80;;;;;;;;;;5025579;28;20223;-76
2022/07/06 04:09:03;;;;;;;1.42;0.65;;;;;;;;;;5024923;28;20041;-76
2022/07/06 04:11:31;;;;;;;3.03;0.80;;;;;;;;;;5034732;28;20115;-76
2022/07/06 04:13:56;;;;;;;1.30;0.73;;;;;;;;;;5032895;28;20041;-76
2022/07/06 04:16:22;;;;;;;1.52;0.60;;;;;;;;;;5016651;28;20159;-76
2022/07/06 04:18:47;;;;;;;1.88;0.73;;;;;;;;;;5033685;28;20041;-76
2022/07/06 04:21:12;;;;;;;3.90;0.80;;;;;;;;;;5032701;28;20445;-76
2022/07/06 04:23:38;;;;;;;1.45;0.65;;;;;;;;;;5032592;28;20407;-76
2022/07/06 04:26:03;;;;;;;2.03;0.70;;;;;;;;;;5025076;28;20067;-77
2022/07/06 04:28:28;;;;;;;2.53;0.80;;;;;;;;;;5016758;28;20061;-76
2022/07/06 04:30:54;;;;;;;1.63;0.70;;;;;;;;;;5026450;28;20033;-77
2022/07/06 04:33:19;;;;;;;4.95;1.02;;;;;;;;;;5020605;28;20045;-76
2022/07/06 04:35:45;;;;;;;1.45;0.70;;;;;;;;;;5035615;28;20045;-76
2022/07/06 04:38:10;;;;;;;2.20;0.80;;;;;;;;;;5014862;28;20037;-76
2022/07/06 04:40:35;;;;;;;2.97;0.70;;;;;;;;;;5025248;28;20037;-76
2022/07/06 04:43:01;;;;;;;1.92;0.50;;;;;;;;;;5033152;28;20040;-77
2022/07/06 04:45:26;;;;;;;1.55;0.63;;;;;;;;;;5030871;28;20112;-76
2022/07/06 04:47:52;;;;;;;1.17;0.50;;;;;;;;;;5037889;28;20152;-77
2022/07/06 04:50:17;;;;;;;4.30;0.95;;;;;;;;;;5030808;28;20056;-78
2022/07/06 04:52:45;;;;;;;1.30;0.70;;;;;;;;;;5036494;28;20049;-78
2022/07/06 04:55:11;;;;;;;1.50;0.63;;;;;;;;;;5033603;28;20091;-78
2022/07/06 04:57:36;;;;;;;2.53;0.60;;;;;;;;;;5011092;28;20042;-77
2022/07/06 05:00:03;;;;;;;2.10;0.80;;;;;;;;;;5012912;28;20140;-77
2022/07/06 05:02:28;;;;;;;2.17;0.70;;;;;;;;;;5033158;28;20128;-77
2022/07/06 05:04:54;;;;;;;1.77;0.75;;;;;;;;;;5036190;28;20170;-77
2022/07/06 05:07:19;;;;;;;1.38;0.40;;;;;;;;;;5032423;28;20102;-77
2022/07/06 05:09:45;;;;;;;2.58;0.50;;;;;;;;;;5023283;28;20170;-77
2022/07/06 05:12:10;;;;;;;1.60;0.60;;;;;;;;;;5023400;28;20044;-78
2022/07/06 05:14:36;;;;;;;3.10;0.63;;;;;;;;;;5030417;28;20037;-77
2022/07/06 05:17:01;;;;;;;1.38;0.60;;;;;;;;;;5032085;28;20047;-80
2022/07/06 05:19:27;;;;;;;2.97;0.80;;;;;;;;;;5024356;28;20134;-80
2022/07/06 05:21:52;;;;;;;1.25;0.80;;;;;;;;;;5034834;28;21066;-80
2022/07/06 05:24:18;;;;;;;1.20;0.50;;;;;;;;;;5032702;28;20040;-78
2022/07/06 05:26:44;;;;;;;2.60;0.85;;;;;;;;;;5019683;28;20044;-80
2022/07/06 05:29:09;;;;;;;3.10;0.50;;;;;;;;;;5031638;28;20497;-82
2022/07/06 05:31:35;;;;;;;1.02;0.40;;;;;;;;;;5012319;28;20585;-82
2022/07/06 05:34:00;;;;;;;1.67;0.60;;;;;;;;;;5003022;28;20037;-82
2022/07/06 05:36:26;;;;;;;1.38;0.50;;;;;;;;;;5015970;28;20120;-79
2022/07/06 05:38:51;;;;;;;1.55;0.40;;;;;;;;;;5018415;28;20037;-79
2022/07/06 05:41:17;;;;;;;2.95;0.77;;;;;;;;;;5033851;28;20047;-79
2022/07/06 05:44:02;;;;;;;1.45;0.60;;;;;;;;;;5013661;28;20033;-80
2022/07/06 05:46:28;;;;;;;2.33;0.40;;;;;;;;;;4975662;28;20043;-79
2022/07/06 05:51:37;;;;;;;4.45;0.60;;;;;;;;;;4980139;28;20060;-79
2022/07/06 05:54:02;;;;;;;3.33;0.40;;;;;;;;;;4965322;28;20046;-80
2022/07/06 05:56:28;;;;;;;1.58;0.52;;;;;;;;;;4967734;28;20125;-80
2022/07/06 05:58:53;;;;;;;3.05;0.40;;;;;;;;;;4986683;28;20796;-80
2022/07/06 06:01:18;;;;;;;1.00;0.55;;;;;;;;;;4968285;28;20072;-81
2022/07/06 06:03:43;;;;;;;1.38;0.32;;;;;;;;;;4960965;28;20045;-80
2022/07/06 06:06:09;;;;;;;0.70;0.30;;;;;;;;;;4984429;28;20089;-80
2022/07/06 06:08:34;;;;;;;1.38;0.52;;;;;;;;;;4976824;28;20057;-78
2022/07/06 06:11:00;;;;;;;1.10;0.50;;;;;;;;;;4961059;28;20038;-80
2022/07/06 06:13:25;;;;;;;2.42;0.47;;;;;;;;;;4969021;28;20077;-80
2022/07/06 06:15:50;;;;;;;1.67;0.57;;;;;;;;;;4968385;28;20044;-80
2022/07/06 06:18:19;;;;;;;1.70;0.50;;;;;;;;;;4966712;28;20038;-79
2022/07/06 06:20:47;;;;;;;1.63;0.40;;;;;;;;;;4967916;28;20097;-81
2022/07/06 06:23:13;;;;;;;1.90;0.70;;;;;;;;;;4998053;28;20039;-80
2022/07/06 06:25:39;;;;;;;1.55;0.50;;;;;;;;;;5023306;28;20475;-80
2022/07/06 06:28:06;;;;;;;3.88;0.65;;;;;;;;;;5017022;28;20136;-79
2022/07/06 06:30:32;;;;;;;0.93;0.45;;;;;;;;;;5008352;28;20025;-79
2022/07/06 06:33:07;;;;;;;1.42;0.40;;;;;;;;;;5027402;28;20047;-80
2022/07/06 06:35:32;;;;;;;1.85;0.70;;;;;;;;;;5034151;28;20037;-81
2022/07/06 06:37:58;;;;;;;0.77;0.38;;;;;;;;;;5024314;28;20033;-79
2022/07/06 06:40:23;;;;;;;2.30;0.55;;;;;;;;;;5037172;28;20045;-80
2022/07/06 06:42:48;;;;;;;2.50;0.50;;;;;;;;;;5028478;28;20045;-80
2022/07/06 06:45:14;;;;;;;5.35;0.60;;;;;;;;;;5021542;28;20053;-80
2022/07/06 06:47:39;;;;;;;3.10;0.88;;;;;;;;;;5020290;28;20045;-80
2022/07/06 06:50:05;;;;;;;1.45;0.50;;;;;;;;;;5030067;28;20543;-80
2022/07/06 06:52:30;;;;;;;2.53;0.52;;;;;;;;;;5019853;28;20535;-80
2022/07/06 06:54:55;;;;;;;0.85;0.40;;;;;;;;;;5032654;28;20029;-80
2022/07/06 06:57:21;;;;;;;2.88;0.65;;;;;;;;;;5041185;28;20048;-80
2022/07/06 06:59:46;;;;;;;1.25;0.43;;;;;;;;;;5022047;28;20033;-78
2022/07/06 07:02:11;;;;;;;5.03;0.50;;;;;;;;;;5023128;28;20040;-83
2022/07/06 07:04:37;;;;;;;1.80;0.50;;;;;;;;;;5023874;28;20132;-78
2022/07/06 07:07:02;;;;;;;1.55;0.47;;;;;;;;;;5025709;28;20044;-79
2022/07/06 07:09:28;;;;;;;3.05;0.50;;;;;;;;;;5024453;28;20043;-80
2022/07/06 07:11:54;;;;;;;1.35;0.45;;;;;;;;;;5036608;28;20063;-81
2022/07/06 07:14:20;;;;;;;1.90;0.40;;;;;;;;;;5026303;28;20036;-80
2022/07/06 07:16:45;;;;;;;2.53;0.60;;;;;;;;;;5038690;28;20040;-81
2022/07/06 07:19:10;;;;;;;2.70;0.55;;;;;;;;;;5029347;28;20491;-80
2022/07/06 07:21:36;;;;;;;1.08;0.40;;;;;;;;;;5014318;28;20041;-81
2022/07/06 07:24:01;;;;;;;7.05;0.70;;;;;;;;;;5009813;28;20044;-80
2022/07/06 07:26:27;;;;;;;1.17;0.40;;;;;;;;;;5022334;28;20048;-80
2022/07/06 07:28:52;;;;;;;1.02;0.30;;;;;;;;;;5029886;28;20036;-79
2022/07/06 07:31:17;;;;;;;0.90;0.30;;;;;;;;;;5057844;28;20488;-79
2022/07/06 07:33:42;;;;;;;3.00;0.85;;;;;;;;;;5038139;28;20037;-80
2022/07/06 07:36:08;;;;;;;2.85;0.50;;;;;;;;;;5008267;28;20041;-80
2022/07/06 07:38:33;;;;;;;2.85;0.52;;;;;;;;;;5022765;28;20052;-79
2022/07/06 07:40:58;;;;;;;1.88;0.40;;;;;;;;;;5027896;28;20050;-79
2022/07/06 07:43:24;;;;;;;1.08;0.40;;;;;;;;;;5021887;28;20079;-79
2022/07/06 07:45:49;;;;;;;1.35;0.38;;;;;;;;;;5036948;28;20861;-79
2022/07/06 07:48:15;;;;;;;1.77;0.52;;;;;;;;;;5028604;28;20165;-79
2022/07/06 07:50:41;;;;;;;0.88;0.38;;;;;;;;;;5038466;28;20570;-80
2022/07/06 07:53:06;;;;;;;0.47;0.22;;;;;;;;;;5025087;28;20037;-79
2022/07/06 07:55:34;;;;;;;0.85;0.30;;;;;;;;;;5020162;28;20054;-80
2022/07/06 07:57:59;;;;;;;;;;;;;;;;;;5028118;28;20033;-79
2022/07/06 08:00:25;;;;;;;1.10;0.30;;;;;;;;;;5039806;28;19916;-80
2022/07/06 08:02:50;;;;;;;1.60;0.43;;;;;;;;;;5020787;28;20040;-80
2022/07/06 08:05:16;;;;;;;1.65;0.50;;;;;;;;;;5023347;28;20057;-80
2022/07/06 08:07:42;;;;;;;1.67;0.40;;;;;;;;;;5037616;28;20043;-80
2022/07/06 08:10:08;;;;;;;1.30;0.30;;;;;;;;;;5023753;28;20033;-79
2022/07/06 08:12:33;;;;;;;0.63;0.20;;;;;;;;;;5030000;28;20625;-81
2022/07/06 08:14:59;;;;;;;0.80;0.30;;;;;;;;;;5028636;28;20037;-80
2022/07/06 08:17:24;;;;;;;0.60;0.20;;;;;;;;;;5024510;28;20032;-79
2022/07/06 08:19:49;;;;;;;1.27;0.30;;;;;;;;;;5010411;28;20378;-80
2022/07/06 08:22:16;;;;;;;1.08;0.30;;;;;;;;;;5027376;28;20024;-80
2022/07/06 08:24:41;;;;;;;1.35;0.40;;;;;;;;;;5021811;28;20041;-79
2022/07/06 08:27:06;;;;;;;1.38;0.35;;;;;;;;;;5036163;28;20037;-80
2022/07/06 08:29:32;;;;;;;1.33;0.30;;;;;;;;;;5021594;28;20060;-80
2022/07/06 08:31:57;;;;;;;1.75;0.25;;;;;;;;;;5022924;28;20036;-79
2022/07/06 08:34:23;;;;;;;4.05;0.35;;;;;;;;;;5029445;28;20037;-79
2022/07/06 08:36:49;;;;;;;2.95;0.30;;;;;;;;;;5036052;28;20082;-80
2022/07/06 08:39:14;;;;;;;1.80;0.52;;;;;;;;;;5039986;28;20063;-80
2022/07/06 08:41:41;;;;;;;0.55;0.20;;;;;;;;;;5029558;28;20037;-79
2022/07/06 08:44:07;;;;;;;1.40;0.35;;;;;;;;;;5043568;28;20064;-80
2022/07/06 08:46:33;;;;;;;0.70;0.20;;;;;;;;;;5040318;28;20036;-80
2022/07/06 08:49:00;;;;;;;1.27;0.30;;;;;;;;;;5029740;28;20082;-79
2022/07/06 08:51:26;;;;;;;1.75;0.43;;;;;;;;;;5029898;28;20040;-79
2022/07/06 08:53:51;;;;;;;0.30;0.20;;;;;;;;;;5038056;28;20047;-81
2022/07/06 08:56:18;;;;;;;0.93;0.20;;;;;;;;;;5037968;28;20048;-81
2022/07/06 08:58:43;;;;;;;1.30;0.30;;;;;;;;;;5034359;28;20119;-81
2022/07/06 09:01:10;;;;;;;1.95;0.40;;;;;;;;;;5027973;28;20119;-80
2022/07/06 09:03:36;;;;;;;0.70;0.22;;;;;;;;;;5024048;28;20067;-82
2022/07/06 09:06:04;;;;;;;1.10;0.22;;;;;;;;;;5039020;28;20518;-80
2022/07/06 09:08:51;;;;;;;1.80;0.30;;;;;;;;;;5037763;28;20996;-81
2022/07/06 09:11:17;;;;;;;1.58;0.35;;;;;;;;;;4983255;28;20046;-81
2022/07/06 09:13:42;;;;;;;0.52;0.20;;;;;;;;;;4983546;28;20493;-81
2022/07/06 09:16:15;;;;;;;3.20;0.28;;;;;;;;;;4972911;28;20030;-81
2022/07/06 09:18:43;;;;;;;1.27;0.30;;;;;;;;;;4971634;28;20138;-81
2022/07/06 09:21:09;;;;;;;0.73;0.30;;;;;;;;;;4967021;28;20042;-82
2022/07/06 09:23:36;;;;;;;1.52;0.40;;;;;;;;;;4975626;28;20046;-80
2022/07/06 09:26:03;;;;;;;2.30;0.30;;;;;;;;;;4985053;28;20034;-81
2022/07/06 09:28:44;;;;;;;0.40;0.20;;;;;;;;;;4985722;28;20037;-80
2022/07/06 09:31:10;;;;;;;1.55;0.30;;;;;;;;;;4985566;28;20125;-80
2022/07/06 09:33:35;;;;;;;1.38;0.30;;;;;;;;;;4986113;28;20042;-81
2022/07/06 09:36:02;;;;;;;0.55;0.20;;;;;;;;;;4994358;28;20496;-81
2022/07/06 09:38:30;;;;;;;1.50;0.35;;;;;;;;;;5001893;28;20198;-81
2022/07/06 09:40:55;;;;;;;1.00;0.30;;;;;;;;;;4985972;28;20068;-81
2022/07/06 09:43:23;;;;;;;0.75;0.20;;;;;;;;;;4980399;28;20049;-81
2022/07/06 09:45:50;;;;;;;1.60;0.70;;;;;;;;;;5000545;28;20517;-81
2022/07/06 09:48:22;;;;;;;0.65;0.20;;;;;;;;;;4988717;28;20040;-81
2022/07/06 09:50:58;;;;;;;0.68;0.20;;;;;;;;;;5050550;28;20048;-79
2022/07/06 09:53:26;;;;;;;1.00;0.40;;;;;;;;;;5013199;28;20131;-79
2022/07/06 09:55:54;;;;;;;1.77;0.25;;;;;;;;;;5014237;28;20824;-80
2022/07/06 09:58:20;;;;;;;1.25;0.35;;;;;;;;;;5035194;28;20487;-78
2022/07/06 10:00:47;;;;;;;1.83;0.52;;;;;;;;;;5034298;28;20036;-81
2022/07/06 10:03:15;;;;;;;1.33;0.40;;;;;;;;;;5008428;28;20041;-93
2022/07/06 10:05:43;;;;;;;0.65;0.20;;;;;;;;;;5019471;28;20845;-89
2022/07/06 10:08:09;;;;;;;;;;;;;;;;;;5027520;28;20028;-91
2022/07/06 10:10:38;;;;;;;1.90;0.28;;;;;;;;;;5031778;28;20333;-90
2022/07/06 10:13:09;;;;;;;1.00;0.32;;;;;;;;;;5040527;28;20048;-93
2022/07/06 10:15:40;;;;;;;0.82;0.20;;;;;;;;;;5014235;28;20052;-92
2022/07/06 10:18:07;;;;;;;1.17;0.17;;;;;;;;;;5026599;28;20153;-91
2022/07/06 10:20:36;;;;;;;;;;;;;;;;;;5022847;28;20032;-91
2022/07/06 10:23:05;;;;;;;0.90;0.20;;;;;;;;;;5029464;28;19939;-92
2022/07/06 10:25:32;;;;;;;1.48;0.20;;;;;;;;;;5023638;28;20499;-89
2022/07/06 10:27:58;;;;;;;2.30;0.40;;;;;;;;;;5041146;28;20482;-89
2022/07/06 10:30:28;;;;;;;0.40;0.17;;;;;;;;;;5024033;28;20166;-89
2022/07/06 10:32:56;;;;;;;1.13;0.20;;;;;;;;;;5005240;28;20752;-89
2022/07/06 10:35:21;;;;;;;0.57;0.20;;;;;;;;;;5025864;28;20037;-88
2022/07/06 10:38:06;;;;;;;0.80;0.30;;;;;;;;;;5034185;28;20036;-88
2022/07/06 10:43:43;;;;;;;0.20;0.10;;;;;;;;;;5018047;28;20043;-87
2022/07/06 10:46:11;;;;;;;0.45;0.20;;;;;;;;;;5007194;28;20044;-88
2022/07/06 10:48:43;;;;;;;0.85;0.20;;;;;;;;;;5034928;28;20037;-88
2022/07/06 10:51:12;;;;;;;0.68;0.20;;;;;;;;;;5033877;28;20571;-88
2022/07/06 10:53:39;;;;;;;1.27;0.20;;;;;;;;;;5025628;28;20041;-88
2022/07/06 10:56:07;;;;;;;0.85;0.20;;;;;;;;;;4991253;28;20132;-88
2022/07/06 10:58:35;;;;;;;;;;;;;;;;;;5014868;28;20032;-89
2022/07/06 11:01:00;;;;;;;0.80;0.22;;;;;;;;;;5036967;28;19917;-88
2022/07/06 11:03:35;;;;;;;1.90;0.30;;;;;;;;;;5011439;28;20052;-89
2022/07/06 11:06:05;;;;;;;1.05;0.30;;;;;;;;;;5020605;28;20060;-88
2022/07/06 11:08:45;;;;;;;0.45;0.10;;;;;;;;;;5024043;28;20094;-88
2022/07/06 11:11:25;;;;;;;1.25;0.30;;;;;;;;;;5044795;28;20029;-88
2022/07/06 11:13:56;;;;;;;1.58;0.20;;;;;;;;;;5026054;28;20370;-88
2022/07/06 11:16:26;;;;;;;1.17;0.22;;;;;;;;;;5043500;28;20056;-89
2022/07/06 11:19:12;;;;;;;1.08;0.40;;;;;;;;;;5029882;28;20032;-89
2022/07/06 11:22:06;;;;;;;1.38;0.30;;;;;;;;;;5028818;28;20775;-88
2022/07/06 11:24:33;;;;;;;1.58;0.43;;;;;;;;;;5019889;28;20049;-87
2022/07/06 11:27:00;;;;;;;0.82;0.32;;;;;;;;;;5007906;28;20222;-89
2022/07/06 11:29:28;;;;;;;0.80;0.30;;;;;;;;;;5039660;28;20037;-88
2022/07/06 11:31:55;;;;;;;1.25;0.47;;;;;;;;;;5029196;28;20056;-88
2022/07/06 11:34:21;;;;;;;0.75;0.30;;;;;;;;;;5013874;28;20120;-90
2022/07/06 11:36:47;;;;;;;1.13;0.30;;;;;;;;;;5023145;28;20124;-90
2022/07/06 11:39:14;;;;;;;1.35;0.30;;;;;;;;;;5024660;28;20147;-87
2022/07/06 11:41:39;;;;;;;1.95;0.50;;;;;;;;;;5034897;28;20060;-87
2022/07/06 11:44:05;;;;;;;1.70;0.43;;;;;;;;;;5013886;28;20134;-89
2022/07/06 11:46:31;;;;;;;1.10;0.50;;;;;;;;;;5021537;28;20068;-88
2022/07/06 11:49:05;;;;;;;1.80;0.45;;;;;;;;;;5027511;28;20036;-87
2022/07/06 11:51:36;;;;;;;0.13;0.10;;;;;;;;;;5030421;28;20435;-88
2022/07/06 11:54:08;;;;;;;0.45;0.17;;;;;;;;;;5017651;28;20033;-89
2022/07/06 11:56:34;;;;;;;0.40;0.20;;;;;;;;;;4994730;28;20662;-87
2022/07/06 11:59:00;;;;;;;0.35;0.10;;;;;;;;;;5022962;28;20032;-89
2022/07/06 12:01:27;;;;;;;1.25;0.20;;;;;;;;;;5023526;28;20033;-89
2022/07/06 12:03:53;;;;;;;0.38;0.13;;;;;;;;;;5020880;28;20033;-89
2022/07/06 12:06:23;;;;;;;0.88;0.17;;;;;;;;;;5023264;28;20028;-88
2022/07/06 12:08:50;;;;;;;0.22;0.10;;;;;;;;;;5018887;28;20090;-88
2022/07/06 12:11:32;;;;;;;0.30;0.10;;;;;;;;;;5022995;28;20516;-88
2022/07/06 12:13:59;;;;;;;1.10;0.20;;;;;;;;;;5023793;28;20036;-89
2022/07/06 12:16:34;;;;;;;0.80;0.20;;;;;;;;;;5022515;28;20094;-89
2022/07/06 12:19:20;;;;;;;0.90;0.35;;;;;;;;;;5031707;28;20515;-90
2022/07/06 12:21:47;;;;;;;0.45;0.10;;;;;;;;;;4938737;28;20130;-87
2022/07/06 12:24:21;;;;;;;0.30;0.10;;;;;;;;;;4939606;28;20110;-89
2022/07/06 12:26:47;;;;;;;0.47;0.20;;;;;;;;;;4930767;28;20039;-87
2022/07/06 12:29:13;;;;;;;1.38;0.25;;;;;;;;;;4945890;28;20039;-88
2022/07/06 12:31:53;;;;;;;0.68;0.20;;;;;;;;;;4940529;28;20066;-88
2022/07/06 12:34:23;;;;;;;1.02;0.13;;;;;;;;;;4953903;28;20046;-88
2022/07/06 12:36:56;;;;;;;0.80;0.20;;;;;;;;;;4957662;28;20046;-88
2022/07/06 12:39:27;;;;;;;1.58;0.30;;;;;;;;;;4965032;28;20035;-86
2022/07/06 12:42:00;;;;;;;0.45;0.13;;;;;;;;;;4964502;28;20502;-87
2022/07/06 12:44:26;;;;;;;0.85;0.20;;;;;;;;;;4961194;28;20108;-89
2022/07/06 12:47:08;;;;;;;1.33;0.20;;;;;;;;;;4929162;28;20039;-89
2022/07/06 12:49:38;;;;;;;0.93;0.40;;;;;;;;;;4961970;28;20154;-87
2022/07/06 12:52:07;;;;;;;2.78;0.30;;;;;;;;;;4960362;28;20524;-89
2022/07/06 12:54:33;;;;;;;0.43;0.20;;;;;;;;;;4959936;28;20038;-89
2022/07/06 12:57:12;;;;;;;1.03;0.50;;;;;;;;;;4949607;28;20113;-86
2022/07/06 12:59:56;;;;;;;1.27;0.47;;;;;;;;;;5002104;28;20043;-88
2022/07/06 13:02:25;;;;;;;2.00;0.60;;;;;;;;;;5023335;28;20036;-88
2022/07/06 13:05:09;;;;;;;2.08;0.60;;;;;;;;;;5029734;28;20041;-88
2022/07/06 13:07:36;;;;;;;2.17;0.82;;;;;;;;;;5009457;28;20377;-87
2022/07/06 13:10:05;;;;;;;2.30;1.10;;;;;;;;;;5017326;28;20665;-89
2022/07/06 13:12:30;;;;;;;5.35;2.50;;;;;;;;;;5045275;28;20283;-88
2022/07/06 13:14:55;;;;;;;5.07;2.10;;;;;;;;;;5019204;28;20051;-88
2022/07/06 13:17:21;;;;;;;4.82;2.67;;;;;;;;;;5020227;28;20076;-87
2022/07/06 13:19:46;;;;;;;5.57;3.20;;;;;;;;;;5006124;28;20041;-89
2022/07/06 13:22:11;;;;;;;6.80;3.13;;;;;;;;;;5032320;28;20064;-88
2022/07/06 13:24:37;;;;;;;5.00;2.50;;;;;;;;;;5025608;28;20045;-88
2022/07/06 13:27:06;;;;;;;5.00;2.70;;;;;;;;;;5018422;28;20117;-88
2022/07/06 13:29:31;;;;;;;4.97;3.10;;;;;;;;;;5012565;28;20037;-87
2022/07/06 13:31:57;;;;;;;5.28;3.35;;;;;;;;;;5029814;28;20039;-88
2022/07/06 13:34:23;;;;;;;6.07;3.55;;;;;;;;;;5033735;28;20060;-88
2022/07/06 13:36:49;;;;;;;5.25;3.20;;;;;;;;;;5024894;28;20064;-87
2022/07/06 13:39:14;;;;;;;6.45;3.25;;;;;;;;;;5022449;28;20591;-89
2022/07/06 13:41:39;;;;;;;5.10;2.83;;;;;;;;;;5003963;28;20043;-88
2022/07/06 13:44:07;;;;;;;5.75;3.15;;;;;;;;;;5023774;28;20040;-86
2022/07/06 13:46:32;;;;;;;4.70;2.72;;;;;;;;;;5018750;28;20033;-89
2022/07/06 13:48:58;;;;;;;5.07;2.60;;;;;;;;;;5025214;28;20075;-87
2022/07/06 13:51:25;;;;;;;5.18;2.60;;;;;;;;;;5016317;28;20033;-87
2022/07/06 13:53:50;;;;;;;5.97;3.60;;;;;;;;;;5028708;28;20387;-87
2022/07/06 13:56:16;;;;;;;5.40;3.28;;;;;;;;;;5023228;28;20037;-87
2022/07/06 13:58:44;;;;;;;5.10;2.70;;;;;;;;;;5023092;28;20051;-87
2022/07/06 14:01:10;;;;;;;4.15;2.17;;;;;;;;;;5027009;28;20048;-88
2022/07/06 14:03:37;;;;;;;4.88;2.70;;;;;;;;;;5006535;28;20077;-86
2022/07/06 14:06:06;;;;;;;4.30;2.33;;;;;;;;;;5018432;28;20150;-80
2022/07/06 14:08:35;;;;;;;3.75;2.15;;;;;;;;;;5035678;28;20459;-80
2022/07/06 14:11:00;;;;;;;2.42;1.05;;;;;;;;;;5022187;28;20064;-80
2022/07/06 14:13:26;;;;;;;2.53;0.98;;;;;;;;;;5023043;28;20522;-79
2022/07/06 14:15:52;;;;;;;1.58;0.55;;;;;;;;;;5044897;28;20048;-79
2022/07/06 14:18:17;;;;;;;2.38;0.60;;;;;;;;;;5023541;28;20041;-80
2022/07/06 14:20:45;;;;;;;1.85;0.70;;;;;;;;;;5026896;28;20048;-79
2022/07/06 14:23:11;;;;;;;2.70;0.75;;;;;;;;;;5013996;28;20106;-79
2022/07/06 14:25:37;;;;;;;1.15;0.50;;;;;;;;;;5017563;28;20029;-80
2022/07/06 14:28:02;;;;;;;1.65;0.30;;;;;;;;;;5033000;28;20031;-80
2022/07/06 14:30:28;;;;;;;0.43;0.20;;;;;;;;;;5020814;28;20044;-79
2022/07/06 14:32:53;;;;;;;0.95;0.30;;;;;;;;;;5026985;28;20033;-79
2022/07/06 14:35:19;;;;;;;1.42;0.40;;;;;;;;;;5026628;28;20037;-78
2022/07/06 14:37:44;;;;;;;1.20;0.30;;;;;;;;;;5036072;28;20040;-79
2022/07/06 14:40:10;;;;;;;1.45;0.30;;;;;;;;;;5026553;28;20036;-79
2022/07/06 14:42:35;;;;;;;1.00;0.30;;;;;;;;;;5026104;28;20032;-79
2022/07/06 14:45:01;;;;;;;1.40;0.68;;;;;;;;;;5025855;28;20040;-80
2022/07/06 14:47:26;;;;;;;2.50;0.60;;;;;;;;;;5003842;28;20108;-79
2022/07/06 14:49:52;;;;;;;3.80;0.60;;;;;;;;;;5025810;28;20033;-78